Time;durP1;ratioP1;P1;durP2;ratioP2;P2;SDS_P1;SDS_P2;PMS_P1;PMS_P2;Temp;Humidity;BMP_temperature;BMP_pressure;BME280_temperature;BME280_humidity;BME280_pressure;Samples;Min_cycle;Max_cycle;Signal;HPM_P1;HPM_P2
2023/10/04 00:00:45;;;;;;;3.83;1.60;;;13.60;99.90;;;;;;4997336;28;20907;-62
2023/10/04 00:03:12;;;;;;;6.53;1.98;;;13.60;99.90;;;;;;5002503;28;20431;-62
2023/10/04 00:05:38;;;;;;;7.60;1.33;;;13.50;99.90;;;;;;4991178;28;20296;-62
2023/10/04 00:08:06;;;;;;;3.90;1.55;;;13.50;99.90;;;;;;4955812;28;20214;-62
2023/10/04 00:10:34;;;;;;;2.95;1.73;;;13.50;99.90;;;;;;5003867;28;20710;-63
2023/10/04 00:13:03;;;;;;;7.03;1.50;;;13.50;99.90;;;;;;4988489;28;20198;-63
2023/10/04 00:15:31;;;;;;;4.70;1.67;;;13.40;99.90;;;;;;4998689;28;20202;-62
2023/10/04 00:17:58;;;;;;;4.22;1.77;;;13.40;99.90;;;;;;4998270;28;20237;-63
2023/10/04 00:20:31;;;;;;;8.85;1.90;;;13.40;99.90;;;;;;4989075;28;20653;-63
2023/10/04 00:22:58;;;;;;;6.00;1.75;;;13.40;99.90;;;;;;4961573;28;20238;-63
2023/10/04 00:25:25;;;;;;;7.25;1.70;;;13.40;99.90;;;;;;4995493;28;21125;-63
2023/10/04 00:27:56;;;;;;;8.77;1.95;;;13.40;99.90;;;;;;5001530;28;20203;-62
2023/10/04 00:30:25;;;;;;;5.60;1.83;;;13.40;99.90;;;;;;4996994;28;20202;-63
2023/10/04 00:32:53;;;;;;;6.93;2.03;;;13.40;99.90;;;;;;5008116;28;20210;-62
2023/10/04 00:35:21;;;;;;;4.20;2.40;;;13.40;99.90;;;;;;5002339;28;20198;-62
2023/10/04 00:37:55;;;;;;;4.70;1.75;;;13.50;99.90;;;;;;4958243;28;20221;-62
2023/10/04 00:40:24;;;;;;;6.57;1.73;;;13.40;99.90;;;;;;4999774;28;20594;-63
2023/10/04 00:42:53;;;;;;;6.70;1.83;;;13.30;99.90;;;;;;5001812;28;20226;-63
2023/10/04 00:45:22;;;;;;;3.97;1.58;;;13.80;99.90;;;;;;4985239;28;21135;-62
2023/10/04 00:47:53;;;;;;;4.95;1.80;;;13.30;99.90;;;;;;5001113;28;20230;-63
2023/10/04 00:50:26;;;;;;;2.63;1.55;;;13.30;99.90;;;;;;5004933;28;20229;-62
2023/10/04 00:52:57;;;;;;;3.65;1.80;;;13.30;99.90;;;;;;4982663;28;20210;-63
2023/10/04 00:55:24;;;;;;;5.15;1.45;;;13.30;99.90;;;;;;4998210;28;20903;-62
2023/10/04 00:57:53;;;;;;;4.32;1.92;;;13.30;99.90;;;;;;5006756;28;20194;-62
2023/10/04 01:00:20;;;;;;;5.78;2.13;;;13.30;99.90;;;;;;4991116;28;21022;-63
2023/10/04 01:02:47;;;;;;;12.70;1.77;;;13.30;99.90;;;;;;4999728;28;20191;-63
2023/10/04 01:05:17;;;;;;;2.85;1.27;;;13.30;99.90;;;;;;5000602;28;20194;-62
2023/10/04 01:07:47;;;;;;;6.40;1.90;;;13.30;99.90;;;;;;4993444;28;20244;-62
2023/10/04 01:10:15;;;;;;;5.07;1.90;;;14.00;99.90;;;;;;4975375;28;20691;-63
2023/10/04 01:12:44;;;;;;;5.05;1.60;;;13.30;99.90;;;;;;5005537;28;21060;-62
2023/10/04 01:15:30;;;;;;;4.55;1.60;;;13.20;99.90;;;;;;4997793;28;20280;-63
2023/10/04 01:17:57;;;;;;;4.85;1.90;;;13.20;99.90;;;;;;4975924;28;20226;-62
2023/10/04 01:20:28;;;;;;;2.55;1.30;;;13.20;99.90;;;;;;5004464;28;20399;-62
2023/10/04 01:23:00;;;;;;;7.35;1.70;;;13.20;99.90;;;;;;4979693;28;20853;-63
2023/10/04 01:25:31;;;;;;;4.68;1.55;;;13.20;99.90;;;;;;4974557;28;20210;-62
2023/10/04 01:27:58;;;;;;;3.90;1.83;;;13.20;99.90;;;;;;4983811;28;20217;-62
2023/10/04 01:30:25;;;;;;;4.13;1.70;;;13.20;99.90;;;;;;5000789;28;20217;-62
2023/10/04 01:32:52;;;;;;;9.25;2.40;;;13.20;99.90;;;;;;4987547;28;20210;-62
2023/10/04 01:35:23;;;;;;;7.70;1.55;;;13.20;99.90;;;;;;5000760;28;20228;-62
2023/10/04 01:37:50;;;;;;;1.98;1.13;;;13.10;99.90;;;;;;4999062;28;20213;-62
2023/10/04 01:40:22;;;;;;;6.82;1.42;;;13.10;99.90;;;;;;4962094;28;24266;-62
2023/10/04 01:42:49;;;;;;;3.17;1.23;;;13.10;99.90;;;;;;4997731;28;20636;-63
2023/10/04 01:45:18;;;;;;;6.97;1.58;;;13.20;99.90;;;;;;5001226;28;20198;-62
2023/10/04 01:47:45;;;;;;;8.15;1.45;;;13.10;99.90;;;;;;4992422;28;20207;-63
2023/10/04 01:50:12;;;;;;;3.72;1.70;;;13.10;99.90;;;;;;4998748;28;20198;-62
2023/10/04 01:52:39;;;;;;;4.90;2.20;;;13.10;99.90;;;;;;5002199;28;20658;-62
2023/10/04 01:55:10;;;;;;;6.60;1.60;;;13.10;99.90;;;;;;4995573;28;20209;-62
2023/10/04 01:57:39;;;;;;;8.55;2.17;;;13.10;99.90;;;;;;4976207;28;20207;-62
2023/10/04 02:00:09;;;;;;;8.23;1.50;;;13.10;99.90;;;;;;5002010;28;20326;-62
2023/10/04 02:02:36;;;;;;;8.25;1.83;;;13.10;99.90;;;;;;4989329;28;20202;-62
2023/10/04 02:05:05;;;;;;;5.65;1.50;;;13.10;99.90;;;;;;5007000;28;20198;-62
2023/10/04 02:07:32;;;;;;;3.63;1.15;;;13.10;99.90;;;;;;5001529;28;20246;-62
2023/10/04 02:09:59;;;;;;;3.13;1.73;;;13.10;99.90;;;;;;4995251;28;20207;-62
2023/10/04 02:12:26;;;;;;;5.90;1.52;;;12.50;99.90;;;;;;4972034;28;20214;-62
2023/10/04 02:14:54;;;;;;;3.35;1.33;;;13.10;99.90;;;;;;4995659;28;20224;-63
2023/10/04 02:17:22;;;;;;;5.53;1.40;;;13.10;99.90;;;;;;4996482;28;20226;-62
2023/10/04 02:19:49;;;;;;;7.70;1.90;;;13.10;99.90;;;;;;4991727;28;20203;-62
2023/10/04 02:22:18;;;;;;;4.60;1.67;;;13.10;99.90;;;;;;4989600;28;20207;-62
2023/10/04 02:24:45;;;;;;;3.97;1.60;;;13.00;99.90;;;;;;4990591;28;21022;-62
2023/10/04 02:27:12;;;;;;;2.60;1.30;;;13.00;99.90;;;;;;4968645;28;20226;-62
2023/10/04 02:29:39;;;;;;;4.28;1.50;;;13.00;99.90;;;;;;5000613;28;20206;-63
2023/10/04 02:32:09;;;;;;;4.57;1.40;;;13.00;99.90;;;;;;5004059;28;20201;-63
2023/10/04 02:34:36;;;;;;;7.72;1.90;;;13.00;99.90;;;;;;4989934;28;20194;-63
2023/10/04 02:37:06;;;;;;;6.40;1.60;;;13.00;99.90;;;;;;4990033;28;20727;-62
2023/10/04 02:39:33;;;;;;;4.57;1.58;;;13.00;99.90;;;;;;4998295;28;20241;-62
2023/10/04 02:42:00;;;;;;;4.35;1.48;;;13.00;99.90;;;;;;4962319;28;20633;-62
2023/10/04 02:44:27;;;;;;;9.38;1.95;;;13.00;99.90;;;;;;5003655;28;20199;-62
2023/10/04 02:46:55;;;;;;;3.97;1.73;;;13.10;99.90;;;;;;4998014;28;20669;-62
2023/10/04 02:49:23;;;;;;;2.72;1.40;;;13.00;99.90;;;;;;4986544;28;20229;-63
2023/10/04 02:51:50;;;;;;;6.43;2.00;;;13.00;99.90;;;;;;5001280;28;20260;-62
2023/10/04 02:54:17;;;;;;;3.70;1.55;;;13.00;99.90;;;;;;4993800;28;20429;-63
2023/10/04 02:56:46;;;;;;;6.40;1.58;;;12.90;99.90;;;;;;4988313;28;20549;-63
2023/10/04 02:59:16;;;;;;;4.13;1.50;;;13.00;99.90;;;;;;4969895;28;20724;-62
2023/10/04 03:01:43;;;;;;;5.93;2.00;;;13.00;99.90;;;;;;5003197;28;20217;-62
2023/10/04 03:04:11;;;;;;;4.70;1.40;;;12.90;99.90;;;;;;4977204;28;20503;-62
2023/10/04 03:06:40;;;;;;;6.25;1.83;;;13.00;99.90;;;;;;5005664;28;20230;-62
2023/10/04 03:09:08;;;;;;;3.92;1.67;;;13.00;99.90;;;;;;5002228;28;20284;-63
2023/10/04 03:11:37;;;;;;;3.45;1.52;;;13.00;99.90;;;;;;4993184;28;20225;-62
2023/10/04 03:14:06;;;;;;;6.05;1.80;;;13.00;99.90;;;;;;4966498;28;20206;-63
2023/10/04 03:16:34;;;;;;;8.73;1.80;;;13.00;99.90;;;;;;4998726;28;20229;-62
2023/10/04 03:19:02;;;;;;;7.82;2.00;;;13.00;99.90;;;;;;4987735;28;20198;-62
2023/10/04 03:21:30;;;;;;;5.13;1.58;;;13.00;99.90;;;;;;4973690;28;20226;-62
2023/10/04 03:24:00;;;;;;;3.85;1.42;;;13.00;99.90;;;;;;5001776;28;20221;-63
2023/10/04 03:26:29;;;;;;;4.03;1.52;;;13.00;99.90;;;;;;4990125;28;20226;-62
2023/10/04 03:28:56;;;;;;;5.50;1.63;;;11.70;99.90;;;;;;4989938;28;20194;-62
2023/10/04 03:31:24;;;;;;;7.40;1.90;;;12.90;99.90;;;;;;4982012;28;20380;-62
2023/10/04 03:33:53;;;;;;;6.22;1.50;;;12.90;99.90;;;;;;4998456;28;22407;-62
2023/10/04 03:36:19;;;;;;;6.28;1.45;;;12.90;99.90;;;;;;4976274;28;20370;-63
2023/10/04 03:38:49;;;;;;;4.10;1.50;;;12.90;99.90;;;;;;4992310;28;20198;-62
2023/10/04 03:41:19;;;;;;;5.50;1.70;;;13.10;99.90;;;;;;4975873;28;20666;-63
2023/10/04 03:43:46;;;;;;;5.13;1.60;;;12.90;99.90;;;;;;4998736;28;20471;-62
2023/10/04 03:46:18;;;;;;;5.45;1.65;;;12.80;99.90;;;;;;4956142;28;20865;-62
2023/10/04 03:48:45;;;;;;;10.70;2.13;;;12.90;99.90;;;;;;4993386;28;21486;-63
2023/10/04 03:51:13;;;;;;;5.55;1.88;;;12.90;99.90;;;;;;4989146;28;21282;-62
2023/10/04 03:53:42;;;;;;;6.13;1.67;;;12.90;99.90;;;;;;4971183;28;21071;-63
2023/10/04 03:56:10;;;;;;;3.15;1.52;;;;;;;;;;4976130;28;20221;-63
2023/10/04 03:58:40;;;;;;;2.88;1.45;;;12.80;99.90;;;;;;4993940;28;20307;-63
2023/10/04 04:01:08;;;;;;;10.10;1.88;;;12.90;99.90;;;;;;4949394;28;20230;-62
2023/10/04 04:03:35;;;;;;;4.95;1.40;;;12.90;99.90;;;;;;4995464;28;20907;-63
2023/10/04 04:06:02;;;;;;;6.65;1.83;;;12.90;99.90;;;;;;4992340;28;20194;-63
2023/10/04 04:08:29;;;;;;;8.27;1.88;;;12.90;99.90;;;;;;4987599;28;20226;-62
2023/10/04 04:10:56;;;;;;;3.53;1.60;;;;;;;;;;4996914;28;20298;-62
2023/10/04 04:13:23;;;;;;;4.50;1.77;;;12.80;99.90;;;;;;4989801;28;20205;-62
2023/10/04 04:15:52;;;;;;;4.97;1.52;;;12.80;99.90;;;;;;4987755;28;20280;-63
2023/10/04 04:18:21;;;;;;;13.20;1.80;;;12.80;99.90;;;;;;4985991;28;20312;-62
2023/10/04 04:20:48;;;;;;;6.53;1.40;;;12.80;99.90;;;;;;5004365;28;20368;-62
2023/10/04 04:23:15;;;;;;;16.75;2.72;;;13.00;99.90;;;;;;4982667;28;20206;-62
2023/10/04 04:25:43;;;;;;;6.18;1.60;;;12.80;99.90;;;;;;4999758;28;20234;-62
2023/10/04 04:28:12;;;;;;;8.95;1.83;;;12.80;99.90;;;;;;4992928;28;20222;-62
2023/10/04 04:30:39;;;;;;;3.97;1.50;;;12.80;99.90;;;;;;4993870;28;20231;-63
2023/10/04 04:33:08;;;;;;;3.75;1.60;;;12.70;99.90;;;;;;4962133;28;20608;-63
2023/10/04 04:35:47;;;;;;;6.82;1.60;;;12.80;99.90;;;;;;5000304;28;20597;-63
2023/10/04 04:38:16;;;;;;;6.68;1.88;;;12.80;99.90;;;;;;4981642;28;20206;-63
2023/10/04 04:40:46;;;;;;;5.88;1.85;;;12.80;99.90;;;;;;5000884;28;20229;-62
2023/10/04 04:43:26;;;;;;;6.18;1.65;;;12.80;99.90;;;;;;4992963;28;20236;-62
2023/10/04 04:45:56;;;;;;;4.55;1.67;;;12.80;99.90;;;;;;4964889;28;20233;-62
2023/10/04 04:48:29;;;;;;;8.10;2.10;;;12.70;99.90;;;;;;4962858;28;20829;-62
2023/10/04 04:50:58;;;;;;;5.72;1.75;;;12.70;99.90;;;;;;4983688;28;20958;-62
2023/10/04 04:53:27;;;;;;;4.32;1.50;;;12.80;99.90;;;;;;4973691;28;20225;-63
2023/10/04 04:55:55;;;;;;;4.43;1.45;;;12.80;99.90;;;;;;4987629;28;20233;-62
2023/10/04 04:58:23;;;;;;;4.75;2.00;;;12.70;99.90;;;;;;4996519;28;20218;-62
2023/10/04 05:00:55;;;;;;;5.55;1.73;;;12.70;99.90;;;;;;4953193;28;20237;-62
2023/10/04 05:03:22;;;;;;;2.47;1.30;;;11.90;99.90;;;;;;4966193;28;20226;-62
2023/10/04 05:05:50;;;;;;;6.00;1.52;;;12.70;99.90;;;;;;4978382;28;20265;-62
2023/10/04 05:08:18;;;;;;;6.43;1.88;;;12.70;99.90;;;;;;4983175;28;20835;-62
2023/10/04 05:10:46;;;;;;;2.58;1.17;;;12.70;99.90;;;;;;4977344;28;21185;-62
2023/10/04 05:13:13;;;;;;;7.38;1.80;;;12.80;99.90;;;;;;4990177;28;20709;-63
2023/10/04 05:15:42;;;;;;;3.53;1.50;;;12.70;99.90;;;;;;4969879;28;20887;-63
2023/10/04 05:18:12;;;;;;;3.70;1.42;;;12.70;99.90;;;;;;4997191;28;20778;-63
2023/10/04 05:20:41;;;;;;;9.88;2.30;;;12.80;99.90;;;;;;4965704;28;20732;-63
2023/10/04 05:23:12;;;;;;;6.43;1.58;;;12.80;99.90;;;;;;4988353;28;20222;-63
2023/10/04 05:25:39;;;;;;;8.68;1.73;;;12.60;99.90;;;;;;4976859;28;20733;-63
2023/10/04 05:28:09;;;;;;;6.13;1.45;;;12.80;99.90;;;;;;5002074;28;20613;-63
2023/10/04 05:30:37;;;;;;;7.65;1.95;;;;;;;;;;4998533;28;21023;-63
2023/10/04 05:33:06;;;;;;;4.75;1.73;;;12.80;99.90;;;;;;4979953;28;20977;-63
2023/10/04 05:35:33;;;;;;;6.00;1.40;;;12.70;99.90;;;;;;4968965;28;20806;-63
2023/10/04 05:38:00;;;;;;;4.22;1.15;;;12.80;99.90;;;;;;4999625;28;20334;-63
2023/10/04 05:40:28;;;;;;;6.13;1.50;;;13.10;99.90;;;;;;4985726;28;20233;-63
2023/10/04 05:42:56;;;;;;;6.65;1.58;;;12.80;99.90;;;;;;4987842;28;20852;-63
2023/10/04 05:45:25;;;;;;;5.35;1.38;;;12.90;99.90;;;;;;4985111;28;20233;-63
2023/10/04 05:47:52;;;;;;;6.85;1.70;;;13.00;99.90;;;;;;4987889;28;20233;-63
2023/10/04 05:50:21;;;;;;;9.00;4.03;;;13.00;99.90;;;;;;4967009;28;20234;-63
2023/10/04 05:52:48;;;;;;;7.03;2.50;;;13.00;99.90;;;;;;4992827;28;20232;-63
2023/10/04 05:55:16;;;;;;;8.40;2.20;;;13.00;99.90;;;;;;4993496;28;20222;-63
2023/10/04 05:57:46;;;;;;;14.65;2.22;;;;;;;;;;4989655;28;20719;-63
2023/10/04 06:00:24;;;;;;;5.10;2.00;;;13.20;99.90;;;;;;4999822;28;20218;-63
2023/10/04 06:02:52;;;;;;;5.00;1.50;;;13.30;99.90;;;;;;4985563;28;20228;-63
2023/10/04 06:05:22;;;;;;;10.65;1.88;;;13.30;99.90;;;;;;4989156;28;20222;-63
2023/10/04 06:07:49;;;;;;;7.05;1.65;;;;;;;;;;4987634;28;20234;-63
2023/10/04 06:10:16;;;;;;;8.45;1.42;;;13.30;99.90;;;;;;4986339;28;20231;-63
2023/10/04 06:12:46;;;;;;;6.85;1.45;;;13.30;99.90;;;;;;4987177;28;21047;-63
2023/10/04 06:15:16;;;;;;;9.25;1.83;;;13.30;99.90;;;;;;5001318;28;20640;-63
2023/10/04 06:17:44;;;;;;;4.88;1.88;;;13.20;99.90;;;;;;4991880;28;20244;-63
2023/10/04 06:20:25;;;;;;;7.53;1.77;;;13.20;99.90;;;;;;4992317;28;20229;-63
2023/10/04 06:22:57;;;;;;;8.20;2.03;;;13.30;99.90;;;;;;4967878;28;20241;-63
2023/10/04 06:25:25;;;;;;;4.07;1.70;;;13.20;99.90;;;;;;5004056;28;20232;-63
2023/10/04 06:27:55;;;;;;;5.30;1.33;;;13.30;99.90;;;;;;4988589;28;20939;-63
2023/10/04 06:30:23;;;;;;;5.75;1.50;;;13.20;99.90;;;;;;5005392;28;20222;-63
2023/10/04 06:32:52;;;;;;;8.95;1.67;;;14.20;99.90;;;;;;4991706;28;20206;-63
2023/10/04 06:35:22;;;;;;;7.03;1.42;;;13.30;99.90;;;;;;4991384;28;20209;-63
2023/10/04 06:37:50;;;;;;;4.63;1.90;;;;;;;;;;4948942;28;20236;-64
2023/10/04 06:40:19;;;;;;;8.20;2.33;;;13.30;99.90;;;;;;4994582;28;20711;-63
2023/10/04 06:42:46;;;;;;;8.07;1.90;;;13.30;99.90;;;;;;4992500;28;20226;-63
2023/10/04 06:45:14;;;;;;;8.75;1.92;;;13.20;99.90;;;;;;4997527;28;20226;-63
2023/10/04 06:47:44;;;;;;;5.57;2.05;;;13.40;99.90;;;;;;5007510;28;20261;-63
2023/10/04 06:50:15;;;;;;;7.43;1.73;;;13.30;99.90;;;;;;4985932;28;21074;-63
2023/10/04 06:52:43;;;;;;;7.95;1.80;;;13.20;99.90;;;;;;4970344;28;20823;-63
2023/10/04 06:55:11;;;;;;;4.82;1.65;;;13.40;99.90;;;;;;4985719;28;20219;-63
2023/10/04 06:57:40;;;;;;;4.68;1.58;;;13.50;99.90;;;;;;4980683;28;20322;-63
2023/10/04 07:00:13;;;;;;;6.97;2.42;;;13.40;99.90;;;;;;4989397;28;20624;-63
2023/10/04 07:02:44;;;;;;;7.47;2.60;;;13.50;99.90;;;;;;4997213;28;20309;-63
2023/10/04 07:05:19;;;;;;;7.35;1.63;;;13.50;99.90;;;;;;4982794;28;20212;-63
2023/10/04 07:07:47;;;;;;;10.40;2.40;;;13.60;99.90;;;;;;4964343;28;20225;-63
2023/10/04 07:10:15;;;;;;;8.70;2.30;;;13.60;99.90;;;;;;4997908;28;20569;-63
2023/10/04 07:12:43;;;;;;;4.85;1.80;;;13.70;99.90;;;;;;4992049;28;20711;-63
2023/10/04 07:15:11;;;;;;;7.85;1.75;;;13.70;99.90;;;;;;4990066;28;20319;-63
2023/10/04 07:17:39;;;;;;;7.28;2.10;;;14.90;99.90;;;;;;4997557;28;20234;-63
2023/10/04 07:20:14;;;;;;;3.03;1.52;;;13.80;99.90;;;;;;4989058;28;20227;-63
2023/10/04 07:22:43;;;;;;;5.10;1.70;;;13.80;99.90;;;;;;4969055;28;20236;-63
2023/10/04 07:25:12;;;;;;;14.88;2.42;;;13.80;99.90;;;;;;5008274;28;20674;-63
2023/10/04 07:27:40;;;;;;;3.95;1.52;;;13.80;99.90;;;;;;5003465;28;20360;-62
2023/10/04 07:30:08;;;;;;;8.93;2.03;;;13.80;99.90;;;;;;4986617;28;20221;-63
2023/10/04 07:32:34;;;;;;;9.43;2.33;;;13.80;99.90;;;;;;4971209;28;20260;-63
2023/10/04 07:35:03;;;;;;;8.68;2.55;;;13.90;99.90;;;;;;4981931;28;20211;-63
2023/10/04 07:37:31;;;;;;;9.23;2.50;;;13.80;99.90;;;;;;4976125;28;20813;-63
2023/10/04 07:39:58;;;;;;;9.20;2.42;;;13.90;99.90;;;;;;4971887;28;20592;-63
2023/10/04 07:42:26;;;;;;;11.00;2.70;;;13.90;99.90;;;;;;5000412;28;20191;-62
2023/10/04 07:44:52;;;;;;;10.25;2.00;;;13.90;99.90;;;;;;4981626;28;20202;-63
2023/10/04 07:47:19;;;;;;;9.52;2.05;;;14.00;99.90;;;;;;4990165;28;20658;-63
2023/10/04 07:49:46;;;;;;;15.27;2.50;;;14.00;99.90;;;;;;4977761;28;20225;-63
2023/10/04 07:52:13;;;;;;;8.07;2.15;;;14.00;99.90;;;;;;4987693;28;20730;-63
2023/10/04 07:54:41;;;;;;;11.15;2.13;;;14.20;99.90;;;;;;4968994;28;21378;-63
2023/10/04 07:57:09;;;;;;;8.85;2.17;;;14.10;99.90;;;;;;5003178;28;20491;-63
2023/10/04 07:59:37;;;;;;;7.05;2.13;;;14.30;99.90;;;;;;4986764;28;20770;-63
2023/10/04 08:02:04;;;;;;;5.22;1.80;;;14.30;99.90;;;;;;4999152;28;20403;-63
2023/10/04 08:04:33;;;;;;;7.25;2.00;;;14.30;99.90;;;;;;4998547;28;20198;-62
2023/10/04 08:07:00;;;;;;;3.50;1.95;;;14.40;99.90;;;;;;4985788;28;20225;-63
2023/10/04 08:09:27;;;;;;;7.07;2.20;;;14.40;99.90;;;;;;4959734;28;20809;-63
2023/10/04 08:11:55;;;;;;;6.60;1.83;;;14.40;99.90;;;;;;4990215;28;20893;-63
2023/10/04 08:14:22;;;;;;;8.80;2.30;;;14.40;99.90;;;;;;5003477;28;20213;-63
2023/10/04 08:16:52;;;;;;;10.05;2.22;;;14.40;99.90;;;;;;4982895;28;20241;-63
2023/10/04 08:19:20;;;;;;;10.60;2.60;;;14.50;99.90;;;;;;5002612;28;20198;-63
2023/10/04 08:21:47;;;;;;;15.00;2.97;;;14.20;99.90;;;;;;4987728;28;20738;-63
2023/10/04 08:24:14;;;;;;;6.93;2.20;;;14.60;99.90;;;;;;4987107;28;20245;-63
2023/10/04 08:26:41;;;;;;;7.63;2.55;;;14.60;99.90;;;;;;4967863;28;20234;-63
2023/10/04 08:29:09;;;;;;;7.03;2.00;;;14.70;99.90;;;;;;4986613;28;20856;-63
2023/10/04 08:31:36;;;;;;;11.73;2.70;;;14.70;99.90;;;;;;4980535;28;20218;-63
2023/10/04 08:34:03;;;;;;;7.53;1.83;;;14.70;99.90;;;;;;5003359;28;20507;-63
2023/10/04 08:36:33;;;;;;;6.72;2.20;;;14.80;99.90;;;;;;5007083;28;20210;-63
2023/10/04 08:39:00;;;;;;;5.70;2.10;;;14.80;99.90;;;;;;4971391;28;20751;-63
2023/10/04 08:41:28;;;;;;;7.07;1.95;;;14.80;99.90;;;;;;4973318;28;20305;-63
2023/10/04 08:43:55;;;;;;;6.20;1.92;;;14.80;99.90;;;;;;4994345;28;20268;-63
2023/10/04 08:46:24;;;;;;;7.68;2.05;;;14.90;99.90;;;;;;4991995;28;20506;-63
2023/10/04 08:48:53;;;;;;;10.25;3.65;;;15.00;99.90;;;;;;5001736;28;20229;-63
2023/10/04 08:51:29;;;;;;;7.35;2.58;;;15.00;99.90;;;;;;5006753;28;20194;-62
2023/10/04 08:54:09;;;;;;;7.15;2.28;;;15.30;99.90;;;;;;4978545;28;21404;-62
2023/10/04 08:56:43;;;;;;;8.57;2.50;;;15.00;99.90;;;;;;4977159;28;20214;-63
2023/10/04 08:59:11;;;;;;;13.63;2.25;;;15.10;99.90;;;;;;4995525;28;20736;-63
2023/10/04 09:01:41;;;;;;;7.40;2.30;;;15.10;99.90;;;;;;4996755;28;21017;-63
2023/10/04 09:04:09;;;;;;;10.43;2.60;;;15.10;99.90;;;;;;4996950;28;20248;-63
2023/10/04 09:06:38;;;;;;;5.50;2.45;;;15.10;99.90;;;;;;5009627;28;20545;-63
2023/10/04 09:09:06;;;;;;;8.93;2.67;;;15.30;99.90;;;;;;4982822;28;20227;-63
2023/10/04 09:11:33;;;;;;;8.05;2.50;;;15.30;99.90;;;;;;4968735;28;20233;-63
2023/10/04 09:14:00;;;;;;;10.05;2.30;;;15.40;99.90;;;;;;4996342;28;20442;-63
2023/10/04 09:16:29;;;;;;;10.45;1.90;;;15.40;99.90;;;;;;5004535;28;20218;-63
2023/10/04 09:19:07;;;;;;;9.88;2.63;;;15.30;99.90;;;;;;4990830;28;20202;-63
2023/10/04 09:21:35;;;;;;;8.10;2.38;;;15.30;99.90;;;;;;5007633;28;20197;-63
2023/10/04 09:24:08;;;;;;;9.02;2.72;;;15.30;99.90;;;;;;4993379;28;20715;-64
2023/10/04 09:26:36;;;;;;;15.50;3.75;;;15.30;99.90;;;;;;4958255;28;20226;-63
2023/10/04 09:29:04;;;;;;;9.43;3.90;;;15.20;99.90;;;;;;5002736;28;20261;-64
2023/10/04 09:31:37;;;;;;;16.40;3.08;;;15.40;99.90;;;;;;5007513;28;20230;-64
2023/10/04 09:34:14;;;;;;;5.10;2.30;;;15.30;99.90;;;;;;4994835;28;20691;-64
2023/10/04 09:36:42;;;;;;;7.50;2.60;;;15.40;99.90;;;;;;5005086;28;20209;-64
2023/10/04 09:39:13;;;;;;;8.15;2.35;;;15.40;99.90;;;;;;4997578;28;20303;-64
2023/10/04 09:41:42;;;;;;;8.65;2.67;;;15.60;99.90;;;;;;4962498;28;20210;-64
2023/10/04 09:44:21;;;;;;;11.02;2.42;;;15.50;99.90;;;;;;5006151;28;20749;-63
2023/10/04 09:46:50;;;;;;;5.72;2.17;;;15.50;99.90;;;;;;5004601;28;20190;-64
2023/10/04 09:49:18;;;;;;;8.38;2.50;;;15.60;99.90;;;;;;4989010;28;20230;-64
2023/10/04 09:51:47;;;;;;;10.82;2.58;;;15.70;99.90;;;;;;5005153;28;20413;-64
2023/10/04 09:54:16;;;;;;;13.35;3.10;;;15.70;99.90;;;;;;5003942;28;20202;-64
2023/10/04 09:56:44;;;;;;;8.85;2.38;;;15.80;99.90;;;;;;4990059;28;20214;-64
2023/10/04 09:59:12;;;;;;;8.25;2.60;;;15.90;99.90;;;;;;4969642;28;20224;-64
2023/10/04 10:01:41;;;;;;;7.13;2.45;;;15.90;99.90;;;;;;5001819;28;20207;-64
2023/10/04 10:04:17;;;;;;;12.70;3.05;;;15.90;99.90;;;;;;4985119;28;20218;-64
2023/10/04 10:06:56;;;;;;;12.07;2.45;;;16.00;99.90;;;;;;5005613;28;20293;-64
2023/10/04 10:09:25;;;;;;;11.45;3.08;;;15.90;99.90;;;;;;4989427;28;20360;-64
2023/10/04 10:11:54;;;;;;;11.77;3.00;;;16.00;99.90;;;;;;4987770;28;20228;-64
2023/10/04 10:14:22;;;;;;;6.57;2.67;;;16.00;99.90;;;;;;4968196;28;20227;-63
2023/10/04 10:16:54;;;;;;;11.27;2.97;;;16.00;99.90;;;;;;4975856;28;20237;-64
2023/10/04 10:19:23;;;;;;;15.13;3.17;;;16.00;99.90;;;;;;4977821;28;20221;-64
2023/10/04 10:22:11;;;;;;;12.57;2.60;;;16.10;99.90;;;;;;4976322;28;20194;-64
2023/10/04 10:24:50;;;;;;;5.38;2.83;;;16.00;99.90;;;;;;4998079;28;20693;-63
2023/10/04 10:27:20;;;;;;;8.85;2.88;;;16.00;99.90;;;;;;4981029;28;20292;-64
2023/10/04 10:29:48;;;;;;;6.93;2.20;;;16.10;99.90;;;;;;4940726;28;20268;-64
2023/10/04 10:32:17;;;;;;;10.70;3.05;;;16.10;99.90;;;;;;4990031;28;20252;-64
2023/10/04 10:34:44;;;;;;;11.32;4.93;;;16.20;99.90;;;;;;4975722;28;20381;-64
2023/10/04 10:37:19;;;;;;;11.50;2.75;;;16.20;99.90;;;;;;4990625;28;20400;-63
2023/10/04 10:39:47;;;;;;;8.77;2.90;;;16.20;99.90;;;;;;4993299;28;20304;-63
2023/10/04 10:42:15;;;;;;;12.18;2.65;;;16.30;99.90;;;;;;4967303;28;20816;-63
2023/10/04 10:44:42;;;;;;;6.65;2.63;;;16.30;99.90;;;;;;4969416;28;20218;-64
2023/10/04 10:47:18;;;;;;;6.07;2.60;;;16.30;99.90;;;;;;4994888;28;20682;-64
2023/10/04 10:50:12;;;;;;;8.75;3.05;;;16.30;99.90;;;;;;4991142;28;20387;-64
2023/10/04 10:52:41;;;;;;;12.43;3.00;;;16.30;99.90;;;;;;5002309;28;20624;-64
2023/10/04 10:55:14;;;;;;;7.20;3.17;;;16.30;99.90;;;;;;4980389;28;21940;-63
2023/10/04 10:57:44;;;;;;;13.55;3.08;;;16.40;99.90;;;;;;4987288;28;20202;-63
2023/10/04 11:00:19;;;;;;;10.70;3.20;;;16.30;99.90;;;;;;4962531;28;20462;-63
2023/10/04 11:02:47;;;;;;;8.15;2.90;;;16.40;99.90;;;;;;4981444;28;20690;-64
2023/10/04 11:05:16;;;;;;;6.88;2.28;;;16.40;99.90;;;;;;4984522;28;20625;-64
2023/10/04 11:07:46;;;;;;;8.85;2.92;;;16.30;99.90;;;;;;4989740;28;20300;-63
2023/10/04 11:10:15;;;;;;;6.22;2.83;;;16.30;99.90;;;;;;4994489;28;20558;-63
2023/10/04 11:12:43;;;;;;;6.13;3.03;;;16.30;99.90;;;;;;4991138;28;21173;-63
2023/10/04 11:15:11;;;;;;;11.23;5.43;;;16.30;99.90;;;;;;4946343;28;20781;-63
2023/10/04 11:17:38;;;;;;;10.55;3.17;;;16.30;99.90;;;;;;5005086;28;20243;-64
2023/10/04 11:20:09;;;;;;;6.72;2.88;;;16.40;99.90;;;;;;4985545;28;20985;-63
2023/10/04 11:22:37;;;;;;;7.70;2.90;;;16.40;99.90;;;;;;4992731;28;20202;-63
2023/10/04 11:25:07;;;;;;;6.80;2.80;;;16.40;99.90;;;;;;4997390;28;20292;-63
2023/10/04 11:27:36;;;;;;;10.30;3.10;;;16.40;99.90;;;;;;4986454;28;20213;-63
2023/10/04 11:30:04;;;;;;;6.50;2.80;;;16.40;99.90;;;;;;4943831;28;21403;-64
2023/10/04 11:32:32;;;;;;;123.00;9.00;;;16.40;99.90;;;;;;5001331;28;20212;-63
2023/10/04 11:35:07;;;;;;;9.90;2.90;;;16.50;99.90;;;;;;4983740;28;21027;-64
2023/10/04 11:37:38;;;;;;;10.88;2.88;;;16.50;99.90;;;;;;4989495;28;20201;-63
2023/10/04 11:40:10;;;;;;;8.13;2.92;;;16.50;99.90;;;;;;4981953;28;21251;-63
2023/10/04 11:42:37;;;;;;;7.78;2.53;;;16.50;99.90;;;;;;5006645;28;20220;-63
2023/10/04 11:45:17;;;;;;;10.27;2.60;;;16.50;99.90;;;;;;4984986;28;20301;-63
2023/10/04 11:47:45;;;;;;;14.15;4.38;;;16.50;99.90;;;;;;4967620;28;20229;-63
2023/10/04 11:50:13;;;;;;;11.48;3.38;;;16.60;99.90;;;;;;5001673;28;21110;-63
2023/10/04 11:52:41;;;;;;;10.30;3.03;;;16.60;99.90;;;;;;4985269;28;20224;-63
2023/10/04 11:55:24;;;;;;;11.48;2.70;;;16.60;99.90;;;;;;5000101;28;20203;-63
2023/10/04 11:57:51;;;;;;;10.38;2.22;;;16.70;99.90;;;;;;4998814;28;20262;-63
2023/10/04 12:00:22;;;;;;;11.35;2.70;;;16.70;99.90;;;;;;4976241;28;20202;-63
2023/10/04 12:02:49;;;;;;;12.82;3.17;;;16.70;99.90;;;;;;4965616;28;20245;-63
2023/10/04 12:05:16;;;;;;;19.85;3.65;;;16.70;99.90;;;;;;4980888;28;20414;-63
2023/10/04 12:07:43;;;;;;;7.10;3.03;;;16.70;99.90;;;;;;5000595;28;20248;-63
2023/10/04 12:10:13;;;;;;;14.73;2.85;;;16.70;99.90;;;;;;4991729;28;20766;-64
2023/10/04 12:12:40;;;;;;;4.90;2.50;;;16.60;99.90;;;;;;4991666;28;20699;-63
2023/10/04 12:15:08;;;;;;;8.02;2.78;;;16.60;99.90;;;;;;4989564;28;20264;-63
2023/10/04 12:17:35;;;;;;;8.00;2.47;;;16.60;99.90;;;;;;4957533;28;20313;-63
2023/10/04 12:20:05;;;;;;;10.10;2.75;;;16.70;99.90;;;;;;4979983;28;20813;-64
2023/10/04 12:22:32;;;;;;;6.18;2.83;;;16.60;99.90;;;;;;5006434;28;20205;-63
2023/10/04 12:24:59;;;;;;;7.85;3.28;;;16.70;99.90;;;;;;4984015;28;20782;-63
2023/10/04 12:27:27;;;;;;;13.25;3.63;;;16.70;99.90;;;;;;5001495;28;20209;-63
2023/10/04 12:29:56;;;;;;;5.88;2.90;;;16.30;99.90;;;;;;5003431;28;20261;-64
2023/10/04 12:32:23;;;;;;;8.05;2.63;;;16.70;99.90;;;;;;4976684;28;20281;-63
2023/10/04 12:34:50;;;;;;;8.45;2.85;;;16.70;99.90;;;;;;4962018;28;20225;-63
2023/10/04 12:37:17;;;;;;;7.88;2.90;;;16.70;99.90;;;;;;4992011;28;20214;-63
2023/10/04 12:39:44;;;;;;;6.95;2.67;;;16.70;99.90;;;;;;5000699;28;20206;-63
2023/10/04 12:42:11;;;;;;;6.35;2.45;;;16.70;99.90;;;;;;4996101;28;20206;-63
2023/10/04 12:44:41;;;;;;;10.77;2.67;;;16.80;99.90;;;;;;5006525;28;20251;-63
2023/10/04 12:47:08;;;;;;;11.18;3.25;;;16.70;99.90;;;;;;4971176;28;20203;-63
2023/10/04 12:49:37;;;;;;;6.10;2.72;;;16.70;99.90;;;;;;4968024;28;20222;-63
2023/10/04 12:52:04;;;;;;;8.63;2.78;;;16.70;99.90;;;;;;4979714;28;20230;-63
2023/10/04 12:54:31;;;;;;;8.07;2.50;;;16.70;99.90;;;;;;5009961;28;20260;-63
2023/10/04 12:56:57;;;;;;;11.60;3.13;;;16.60;99.90;;;;;;4988695;28;20202;-63